Terminal Aerodrome Forecast
Issued by NWS St Louis, MO

Home | Current Version | Previous Version | Text Only | Print | Product List | Glossary On
Versions: 1 2 3 4 5 6 7 8 9 10 11 12 13 14 15
000
FTUS43 KLSX 271720
TAFCOU
TAF
KCOU 271720Z 2718/2818 VRB05KT P6SM SCT050
     FM280900 VRB04KT 4SM BR SCT250
     FM281500 21005KT P6SM SCT030=

USA.gov is the U.S. government's official web portal to all federal, state and local government web resources and services.